sensor_id;sensor_type;location;lat;lon;timestamp;temperature;humidity
74946;HTU21D;63509;45.250;38.102;2023-07-24T00:02:07;24.60;64.27
74946;HTU21D;63509;45.250;38.102;2023-07-24T00:04:34;24.61;64.27
74946;HTU21D;63509;45.250;38.102;2023-07-24T00:07:00;24.58;64.27
74946;HTU21D;63509;45.250;38.102;2023-07-24T00:09:26;24.57;64.28
74946;HTU21D;63509;45.250;38.102;2023-07-24T00:11:52;24.56;64.33
74946;HTU21D;63509;45.250;38.102;2023-07-24T00:14:18;24.54;64.30
74946;HTU21D;63509;45.250;38.102;2023-07-24T00:16:45;24.55;64.32
74946;HTU21D;63509;45.250;38.102;2023-07-24T00:19:11;24.54;64.30
74946;HTU21D;63509;45.250;38.102;2023-07-24T00:21:37;24.50;64.32
74946;HTU21D;63509;45.250;38.102;2023-07-24T00:24:03;24.49;64.33
74946;HTU21D;63509;45.250;38.102;2023-07-24T00:26:29;24.48;64.32
74946;HTU21D;63509;45.250;38.102;2023-07-24T00:28:55;24.46;64.30
74946;HTU21D;63509;45.250;38.102;2023-07-24T00:31:22;24.46;64.32
74946;HTU21D;63509;45.250;38.102;2023-07-24T00:33:48;24.43;64.32
74946;HTU21D;63509;45.250;38.102;2023-07-24T00:36:14;24.42;64.31
74946;HTU21D;63509;45.250;38.102;2023-07-24T00:38:40;24.40;64.32
74946;HTU21D;63509;45.250;38.102;2023-07-24T00:41:06;24.36;64.30
74946;HTU21D;63509;45.250;38.102;2023-07-24T00:43:32;24.32;64.32
74946;HTU21D;63509;45.250;38.102;2023-07-24T00:45:58;24.30;64.34
74946;HTU21D;63509;45.250;38.102;2023-07-24T00:48:25;24.26;64.36
74946;HTU21D;63509;45.250;38.102;2023-07-24T00:50:51;24.21;64.37
74946;HTU21D;63509;45.250;38.102;2023-07-24T00:53:17;24.18;64.43
74946;HTU21D;63509;45.250;38.102;2023-07-24T00:55:45;24.15;64.48
74946;HTU21D;63509;45.250;38.102;2023-07-24T00:58:12;24.10;64.53
74946;HTU21D;63509;45.250;38.102;2023-07-24T01:00:39;24.06;64.52
74946;HTU21D;63509;45.250;38.102;2023-07-24T01:03:08;24.04;64.60
74946;HTU21D;63509;45.250;38.102;2023-07-24T01:05:37;24.00;64.63
74946;HTU21D;63509;45.250;38.102;2023-07-24T01:08:04;23.98;64.66
74946;HTU21D;63509;45.250;38.102;2023-07-24T01:10:31;23.96;64.67
74946;HTU21D;63509;45.250;38.102;2023-07-24T01:13:15;23.95;64.46
74946;HTU21D;63509;45.250;38.102;2023-07-24T01:15:47;23.92;64.64
74946;HTU21D;63509;45.250;38.102;2023-07-24T01:18:16;23.89;64.73
74946;HTU21D;63509;45.250;38.102;2023-07-24T01:20:51;23.87;64.63
74946;HTU21D;63509;45.250;38.102;2023-07-24T01:23:58;23.87;64.49
74946;HTU21D;63509;45.250;38.102;2023-07-24T01:26:25;23.82;64.33
74946;HTU21D;63509;45.250;38.102;2023-07-24T01:28:51;23.76;64.58
74946;HTU21D;63509;45.250;38.102;2023-07-24T01:31:18;23.72;64.66
74946;HTU21D;63509;45.250;38.102;2023-07-24T01:33:44;23.69;64.69
74946;HTU21D;63509;45.250;38.102;2023-07-24T01:36:12;23.67;64.72
74946;HTU21D;63509;45.250;38.102;2023-07-24T01:38:41;23.65;64.75
74946;HTU21D;63509;45.250;38.102;2023-07-24T01:41:07;23.60;64.78
74946;HTU21D;63509;45.250;38.102;2023-07-24T01:43:36;23.59;64.80
74946;HTU21D;63509;45.250;38.102;2023-07-24T01:46:03;23.56;64.85
74946;HTU21D;63509;45.250;38.102;2023-07-24T01:48:29;23.53;64.91
74946;HTU21D;63509;45.250;38.102;2023-07-24T01:50:55;23.50;64.97
74946;HTU21D;63509;45.250;38.102;2023-07-24T01:53:21;23.46;64.98
74946;HTU21D;63509;45.250;38.102;2023-07-24T01:55:47;23.43;65.03
74946;HTU21D;63509;45.250;38.102;2023-07-24T01:58:14;23.40;65.08
74946;HTU21D;63509;45.250;38.102;2023-07-24T02:00:40;23.37;65.09
74946;HTU21D;63509;45.250;38.102;2023-07-24T02:03:06;23.35;65.09
74946;HTU21D;63509;45.250;38.102;2023-07-24T02:05:32;23.32;65.11
74946;HTU21D;63509;45.250;38.102;2023-07-24T02:07:59;23.31;65.14
74946;HTU21D;63509;45.250;38.102;2023-07-24T02:10:25;23.29;65.18
74946;HTU21D;63509;45.250;38.102;2023-07-24T02:12:51;23.27;65.21
74946;HTU21D;63509;45.250;38.102;2023-07-24T02:15:18;23.25;65.24
74946;HTU21D;63509;45.250;38.102;2023-07-24T02:17:44;23.22;65.32
74946;HTU21D;63509;45.250;38.102;2023-07-24T02:20:10;23.20;65.35
74946;HTU21D;63509;45.250;38.102;2023-07-24T02:22:37;23.18;65.40
74946;HTU21D;63509;45.250;38.102;2023-07-24T02:25:05;23.17;65.42
74946;HTU21D;63509;45.250;38.102;2023-07-24T02:27:32;23.14;65.47
74946;HTU21D;63509;45.250;38.102;2023-07-24T02:30:00;23.12;65.50
74946;HTU21D;63509;45.250;38.102;2023-07-24T02:32:27;23.12;65.56
74946;HTU21D;63509;45.250;38.102;2023-07-24T02:34:53;23.09;65.59
74946;HTU21D;63509;45.250;38.102;2023-07-24T02:37:19;23.10;65.65
74946;HTU21D;63509;45.250;38.102;2023-07-24T02:39:46;23.12;65.66
74946;HTU21D;63509;45.250;38.102;2023-07-24T02:42:12;23.10;65.66
74946;HTU21D;63509;45.250;38.102;2023-07-24T02:44:38;23.13;65.66
74946;HTU21D;63509;45.250;38.102;2023-07-24T02:47:05;23.14;65.67
74946;HTU21D;63509;45.250;38.102;2023-07-24T02:49:32;23.13;65.68
74946;HTU21D;63509;45.250;38.102;2023-07-24T02:51:58;23.13;65.69
74946;HTU21D;63509;45.250;38.102;2023-07-24T02:54:25;23.15;65.66
74946;HTU21D;63509;45.250;38.102;2023-07-24T02:56:52;23.15;65.71
74946;HTU21D;63509;45.250;38.102;2023-07-24T02:59:18;23.12;65.75
74946;HTU21D;63509;45.250;38.102;2023-07-24T03:01:44;23.10;65.81
74946;HTU21D;63509;45.250;38.102;2023-07-24T03:04:10;23.10;65.83
74946;HTU21D;63509;45.250;38.102;2023-07-24T03:06:38;23.12;65.85
74946;HTU21D;63509;45.250;38.102;2023-07-24T03:09:04;23.13;65.84
74946;HTU21D;63509;45.250;38.102;2023-07-24T03:11:31;23.13;65.84
74946;HTU21D;63509;45.250;38.102;2023-07-24T03:13:57;23.14;65.85
74946;HTU21D;63509;45.250;38.102;2023-07-24T03:16:23;23.16;65.88
74946;HTU21D;63509;45.250;38.102;2023-07-24T03:18:49;23.21;65.85
74946;HTU21D;63509;45.250;38.102;2023-07-24T03:21:16;23.23;65.82
74946;HTU21D;63509;45.250;38.102;2023-07-24T03:23:42;23.24;65.82
74946;HTU21D;63509;45.250;38.102;2023-07-24T03:26:08;23.26;65.80
74946;HTU21D;63509;45.250;38.102;2023-07-24T03:28:34;23.27;65.81
74946;HTU21D;63509;45.250;38.102;2023-07-24T03:31:00;23.30;65.78
74946;HTU21D;63509;45.250;38.102;2023-07-24T03:33:27;23.32;65.75
74946;HTU21D;63509;45.250;38.102;2023-07-24T03:35:53;23.35;65.78
74946;HTU21D;63509;45.250;38.102;2023-07-24T03:38:22;23.37;65.75
74946;HTU21D;63509;45.250;38.102;2023-07-24T03:40:50;23.42;65.33
74946;HTU21D;63509;45.250;38.102;2023-07-24T03:43:16;23.43;65.56
74946;HTU21D;63509;45.250;38.102;2023-07-24T03:45:43;23.47;65.55
74946;HTU21D;63509;45.250;38.102;2023-07-24T03:48:09;23.52;65.54
74946;HTU21D;63509;45.250;38.102;2023-07-24T03:50:36;23.54;65.54
74946;HTU21D;63509;45.250;38.102;2023-07-24T03:53:03;23.57;65.54
74946;HTU21D;63509;45.250;38.102;2023-07-24T03:55:29;23.64;65.56
74946;HTU21D;63509;45.250;38.102;2023-07-24T03:57:55;23.68;65.56
74946;HTU21D;63509;45.250;38.102;2023-07-24T04:00:21;23.74;65.54
74946;HTU21D;63509;45.250;38.102;2023-07-24T04:02:47;23.80;65.57
74946;HTU21D;63509;45.250;38.102;2023-07-24T04:05:14;23.88;65.54
74946;HTU21D;63509;45.250;38.102;2023-07-24T04:07:40;23.99;65.56
74946;HTU21D;63509;45.250;38.102;2023-07-24T04:10:07;24.05;65.45
74946;HTU21D;63509;45.250;38.102;2023-07-24T04:12:35;24.16;65.43
74946;HTU21D;63509;45.250;38.102;2023-07-24T04:15:02;24.24;65.32
74946;HTU21D;63509;45.250;38.102;2023-07-24T04:17:28;24.33;65.21
74946;HTU21D;63509;45.250;38.102;2023-07-24T04:19:54;24.40;65.14
74946;HTU21D;63509;45.250;38.102;2023-07-24T04:22:21;24.46;64.99
74946;HTU21D;63509;45.250;38.102;2023-07-24T04:24:47;24.48;64.95
74946;HTU21D;63509;45.250;38.102;2023-07-24T04:27:13;24.53;64.85
74946;HTU21D;63509;45.250;38.102;2023-07-24T04:29:39;24.58;64.78
74946;HTU21D;63509;45.250;38.102;2023-07-24T04:32:06;24.61;64.72
74946;HTU21D;63509;45.250;38.102;2023-07-24T04:34:32;24.65;64.72
74946;HTU21D;63509;45.250;38.102;2023-07-24T04:36:58;24.71;64.72
74946;HTU21D;63509;45.250;38.102;2023-07-24T04:39:24;24.83;64.72
74946;HTU21D;63509;45.250;38.102;2023-07-24T04:41:51;24.94;64.67
74946;HTU21D;63509;45.250;38.102;2023-07-24T04:44:17;25.05;64.56
74946;HTU21D;63509;45.250;38.102;2023-07-24T04:46:43;25.16;64.48
74946;HTU21D;63509;45.250;38.102;2023-07-24T04:49:09;25.29;64.40
74946;HTU21D;63509;45.250;38.102;2023-07-24T04:51:35;25.42;64.39
74946;HTU21D;63509;45.250;38.102;2023-07-24T04:54:01;25.58;64.19
74946;HTU21D;63509;45.250;38.102;2023-07-24T04:56:28;25.68;64.06
74946;HTU21D;63509;45.250;38.102;2023-07-24T04:58:54;25.80;63.94
74946;HTU21D;63509;45.250;38.102;2023-07-24T05:01:20;25.95;63.88
74946;HTU21D;63509;45.250;38.102;2023-07-24T05:03:47;26.16;63.74
74946;HTU21D;63509;45.250;38.102;2023-07-24T05:06:13;26.32;63.55
74946;HTU21D;63509;45.250;38.102;2023-07-24T05:08:39;26.45;63.24
74946;HTU21D;63509;45.250;38.102;2023-07-24T05:11:08;26.53;62.95
74946;HTU21D;63509;45.250;38.102;2023-07-24T05:13:34;26.55;62.85
74946;HTU21D;63509;45.250;38.102;2023-07-24T05:16:03;26.63;62.74
74946;HTU21D;63509;45.250;38.102;2023-07-24T05:18:29;26.72;62.63
74946;HTU21D;63509;45.250;38.102;2023-07-24T05:20:55;26.83;62.37
74946;HTU21D;63509;45.250;38.102;2023-07-24T05:23:21;26.92;62.24
74946;HTU21D;63509;45.250;38.102;2023-07-24T05:25:55;27.02;62.18
74946;HTU21D;63509;45.250;38.102;2023-07-24T05:28:21;27.20;62.03
74946;HTU21D;63509;45.250;38.102;2023-07-24T05:30:48;27.35;61.72
74946;HTU21D;63509;45.250;38.102;2023-07-24T05:33:17;27.38;61.39
74946;HTU21D;63509;45.250;38.102;2023-07-24T05:35:43;27.36;61.12
74946;HTU21D;63509;45.250;38.102;2023-07-24T05:38:09;27.27;61.06
74946;HTU21D;63509;45.250;38.102;2023-07-24T05:40:35;27.20;61.09
74946;HTU21D;63509;45.250;38.102;2023-07-24T05:43:01;27.16;61.02
74946;HTU21D;63509;45.250;38.102;2023-07-24T05:45:29;27.13;61.08
74946;HTU21D;63509;45.250;38.102;2023-07-24T05:47:55;27.20;61.03
74946;HTU21D;63509;45.250;38.102;2023-07-24T05:50:21;27.24;60.82
74946;HTU21D;63509;45.250;38.102;2023-07-24T05:52:48;27.28;60.64
74946;HTU21D;63509;45.250;38.102;2023-07-24T05:55:14;27.29;60.54
74946;HTU21D;63509;45.250;38.102;2023-07-24T05:57:40;27.36;60.44
74946;HTU21D;63509;45.250;38.102;2023-07-24T06:00:08;27.43;60.31
74946;HTU21D;63509;45.250;38.102;2023-07-24T06:02:37;27.47;60.19
74946;HTU21D;63509;45.250;38.102;2023-07-24T06:05:04;27.50;60.04
74946;HTU21D;63509;45.250;38.102;2023-07-24T06:07:30;27.54;59.93
74946;HTU21D;63509;45.250;38.102;2023-07-24T06:09:56;27.63;59.88
74946;HTU21D;63509;45.250;38.102;2023-07-24T06:12:23;27.71;59.71
74946;HTU21D;63509;45.250;38.102;2023-07-24T06:14:49;27.86;59.72
74946;HTU21D;63509;45.250;38.102;2023-07-24T06:17:15;28.04;59.52
74946;HTU21D;63509;45.250;38.102;2023-07-24T06:19:41;28.18;59.11
74946;HTU21D;63509;45.250;38.102;2023-07-24T06:22:07;28.25;58.80
74946;HTU21D;63509;45.250;38.102;2023-07-24T06:24:34;28.21;58.57
74946;HTU21D;63509;45.250;38.102;2023-07-24T06:27:02;28.20;58.58
74946;HTU21D;63509;45.250;38.102;2023-07-24T06:29:29;28.28;58.56
74946;HTU21D;63509;45.250;38.102;2023-07-24T06:31:55;28.41;58.34
74946;HTU21D;63509;45.250;38.102;2023-07-24T06:34:21;28.44;58.07
74946;HTU21D;63509;45.250;38.102;2023-07-24T06:36:47;28.43;57.80
74946;HTU21D;63509;45.250;38.102;2023-07-24T06:39:13;28.42;57.90
74946;HTU21D;63509;45.250;38.102;2023-07-24T06:41:39;28.56;57.91
74946;HTU21D;63509;45.250;38.102;2023-07-24T06:44:06;28.71;57.58
74946;HTU21D;63509;45.250;38.102;2023-07-24T06:46:32;28.70;57.23
74946;HTU21D;63509;45.250;38.102;2023-07-24T06:48:58;28.64;57.21
74946;HTU21D;63509;45.250;38.102;2023-07-24T06:51:24;28.69;57.21
74946;HTU21D;63509;45.250;38.102;2023-07-24T06:53:50;28.79;57.22
74946;HTU21D;63509;45.250;38.102;2023-07-24T06:56:17;29.01;56.84
74946;HTU21D;63509;45.250;38.102;2023-07-24T06:58:43;29.14;56.48
74946;HTU21D;63509;45.250;38.102;2023-07-24T07:01:09;29.20;56.24
74946;HTU21D;63509;45.250;38.102;2023-07-24T07:03:35;29.29;56.18
74946;HTU21D;63509;45.250;38.102;2023-07-24T07:06:04;29.48;55.86
74946;HTU21D;63509;45.250;38.102;2023-07-24T07:08:32;29.65;55.65
74946;HTU21D;63509;45.250;38.102;2023-07-24T07:11:00;29.83;55.38
74946;HTU21D;63509;45.250;38.102;2023-07-24T07:13:27;29.95;55.07
74946;HTU21D;63509;45.250;38.102;2023-07-24T07:15:53;29.89;54.73
74946;HTU21D;63509;45.250;38.102;2023-07-24T07:18:19;29.72;54.83
74946;HTU21D;63509;45.250;38.102;2023-07-24T07:20:46;29.67;54.87
74946;HTU21D;63509;45.250;38.102;2023-07-24T07:23:13;29.74;54.92
74946;HTU21D;63509;45.250;38.102;2023-07-24T07:25:39;29.94;54.86
74946;HTU21D;63509;45.250;38.102;2023-07-24T07:28:05;30.10;54.33
74946;HTU21D;63509;45.250;38.102;2023-07-24T07:30:31;30.05;54.10
74946;HTU21D;63509;45.250;38.102;2023-07-24T07:32:58;29.90;54.11
74946;HTU21D;63509;45.250;38.102;2023-07-24T07:35:24;29.82;54.07
74946;HTU21D;63509;45.250;38.102;2023-07-24T07:37:50;29.82;54.14
74946;HTU21D;63509;45.250;38.102;2023-07-24T07:40:16;29.85;53.98
74946;HTU21D;63509;45.250;38.102;2023-07-24T07:42:43;29.83;53.93
74946;HTU21D;63509;45.250;38.102;2023-07-24T07:45:11;29.82;53.86
74946;HTU21D;63509;45.250;38.102;2023-07-24T07:47:37;29.92;53.79
74946;HTU21D;63509;45.250;38.102;2023-07-24T07:50:07;30.06;53.60
74946;HTU21D;63509;45.250;38.102;2023-07-24T07:52:33;30.15;53.30
74946;HTU21D;63509;45.250;38.102;2023-07-24T07:54:59;30.13;53.25
74946;HTU21D;63509;45.250;38.102;2023-07-24T07:57:26;30.19;53.23
74946;HTU21D;63509;45.250;38.102;2023-07-24T07:59:52;30.28;53.06
74946;HTU21D;63509;45.250;38.102;2023-07-24T08:02:19;30.38;52.90
74946;HTU21D;63509;45.250;38.102;2023-07-24T08:04:45;30.47;52.75
74946;HTU21D;63509;45.250;38.102;2023-07-24T08:07:11;30.61;52.72
74946;HTU21D;63509;45.250;38.102;2023-07-24T08:09:37;30.81;52.46
74946;HTU21D;63509;45.250;38.102;2023-07-24T08:12:04;30.95;52.12
74946;HTU21D;63509;45.250;38.102;2023-07-24T08:14:30;30.98;51.79
74946;HTU21D;63509;45.250;38.102;2023-07-24T08:16:57;31.08;51.54
74946;HTU21D;63509;45.250;38.102;2023-07-24T08:19:23;31.16;51.35
74946;HTU21D;63509;45.250;38.102;2023-07-24T08:21:49;31.26;51.20
74946;HTU21D;63509;45.250;38.102;2023-07-24T08:24:16;31.52;50.93
74946;HTU21D;63509;45.250;38.102;2023-07-24T08:26:42;31.74;50.66
74946;HTU21D;63509;45.250;38.102;2023-07-24T08:29:08;31.95;50.34
74946;HTU21D;63509;45.250;38.102;2023-07-24T08:31:35;32.18;50.08
74946;HTU21D;63509;45.250;38.102;2023-07-24T08:34:01;32.43;49.72
74946;HTU21D;63509;45.250;38.102;2023-07-24T08:36:27;32.46;49.49
74946;HTU21D;63509;45.250;38.102;2023-07-24T08:38:53;32.45;49.25
74946;HTU21D;63509;45.250;38.102;2023-07-24T08:41:20;32.40;49.18
74946;HTU21D;63509;45.250;38.102;2023-07-24T08:43:46;32.38;49.17
74946;HTU21D;63509;45.250;38.102;2023-07-24T08:46:13;32.49;48.89
74946;HTU21D;63509;45.250;38.102;2023-07-24T08:48:40;32.62;48.82
74946;HTU21D;63509;45.250;38.102;2023-07-24T08:51:09;32.94;48.53
74946;HTU21D;63509;45.250;38.102;2023-07-24T08:53:38;32.89;48.07
74946;HTU21D;63509;45.250;38.102;2023-07-24T08:56:08;32.68;48.21
74946;HTU21D;63509;45.250;38.102;2023-07-24T08:58:38;32.62;48.28
74946;HTU21D;63509;45.250;38.102;2023-07-24T09:01:06;32.71;48.27
74946;HTU21D;63509;45.250;38.102;2023-07-24T09:03:33;32.89;48.03
74946;HTU21D;63509;45.250;38.102;2023-07-24T09:05:59;32.98;47.78
74946;HTU21D;63509;45.250;38.102;2023-07-24T09:08:37;32.96;47.76
74946;HTU21D;63509;45.250;38.102;2023-07-24T09:11:05;33.09;47.67
74946;HTU21D;63509;45.250;38.102;2023-07-24T09:13:35;33.28;47.37
74946;HTU21D;63509;45.250;38.102;2023-07-24T09:16:02;33.40;47.04
74946;HTU21D;63509;45.250;38.102;2023-07-24T09:18:48;33.47;47.05
74946;HTU21D;63509;45.250;38.102;2023-07-24T09:21:28;33.46;47.00
74946;HTU21D;63509;45.250;38.102;2023-07-24T09:23:55;33.60;46.63
74946;HTU21D;63509;45.250;38.102;2023-07-24T09:26:22;33.74;46.46
74946;HTU21D;63509;45.250;38.102;2023-07-24T09:28:52;33.83;46.37
74946;HTU21D;63509;45.250;38.102;2023-07-24T09:31:19;33.80;45.84
74946;HTU21D;63509;45.250;38.102;2023-07-24T09:33:45;33.76;45.62
74946;HTU21D;63509;45.250;38.102;2023-07-24T09:36:12;33.51;45.65
74946;HTU21D;63509;45.250;38.102;2023-07-24T09:38:40;33.37;45.94
74946;HTU21D;63509;45.250;38.102;2023-07-24T09:41:07;33.27;45.84
74946;HTU21D;63509;45.250;38.102;2023-07-24T09:43:33;33.05;45.86
74946;HTU21D;63509;45.250;38.102;2023-07-24T09:46:04;32.77;46.15
74946;HTU21D;63509;45.250;38.102;2023-07-24T09:48:32;32.57;46.25
74946;HTU21D;63509;45.250;38.102;2023-07-24T09:50:59;32.39;46.41
74946;HTU21D;63509;45.250;38.102;2023-07-24T09:53:34;32.26;46.84
74946;HTU21D;63509;45.250;38.102;2023-07-24T09:56:06;32.29;46.83
74946;HTU21D;63509;45.250;38.102;2023-07-24T09:58:34;32.30;46.66
74946;HTU21D;63509;45.250;38.102;2023-07-24T10:01:06;32.16;46.67
74946;HTU21D;63509;45.250;38.102;2023-07-24T10:03:40;32.10;46.86
74946;HTU21D;63509;45.250;38.102;2023-07-24T10:06:08;32.10;46.82
74946;HTU21D;63509;45.250;38.102;2023-07-24T10:08:38;32.17;46.70
74946;HTU21D;63509;45.250;38.102;2023-07-24T10:11:05;32.15;46.54
74946;HTU21D;63509;45.250;38.102;2023-07-24T10:13:32;32.08;46.50
74946;HTU21D;63509;45.250;38.102;2023-07-24T10:16:02;31.97;46.54
74946;HTU21D;63509;45.250;38.102;2023-07-24T10:18:30;31.86;46.49
74946;HTU21D;63509;45.250;38.102;2023-07-24T10:21:03;31.73;46.79
74946;HTU21D;63509;45.250;38.102;2023-07-24T10:23:30;31.78;46.86
74946;HTU21D;63509;45.250;38.102;2023-07-24T10:26:05;31.85;46.96
74946;HTU21D;63509;45.250;38.102;2023-07-24T10:28:33;32.07;46.80
74946;HTU21D;63509;45.250;38.102;2023-07-24T10:31:01;32.13;46.51
74946;HTU21D;63509;45.250;38.102;2023-07-24T10:33:31;32.15;46.55
74946;HTU21D;63509;45.250;38.102;2023-07-24T10:36:05;32.23;46.51
74946;HTU21D;63509;45.250;38.102;2023-07-24T10:38:40;32.27;46.43
74946;HTU21D;63509;45.250;38.102;2023-07-24T10:41:10;32.28;46.38
74946;HTU21D;63509;45.250;38.102;2023-07-24T10:43:51;32.38;46.34
74946;HTU21D;63509;45.250;38.102;2023-07-24T10:46:20;32.22;46.15
74946;HTU21D;63509;45.250;38.102;2023-07-24T10:48:50;31.98;46.28
74946;HTU21D;63509;45.250;38.102;2023-07-24T10:51:17;31.87;46.44
74946;HTU21D;63509;45.250;38.102;2023-07-24T10:53:49;31.85;46.55
74946;HTU21D;63509;45.250;38.102;2023-07-24T10:56:19;31.71;46.55
74946;HTU21D;63509;45.250;38.102;2023-07-24T10:58:45;31.63;46.56
74946;HTU21D;63509;45.250;38.102;2023-07-24T11:01:11;31.54;46.62
74946;HTU21D;63509;45.250;38.102;2023-07-24T11:03:41;31.52;46.76
74946;HTU21D;63509;45.250;38.102;2023-07-24T11:06:15;31.65;46.74
74946;HTU21D;63509;45.250;38.102;2023-07-24T11:08:42;31.70;46.57
74946;HTU21D;63509;45.250;38.102;2023-07-24T11:11:16;31.74;46.58
74946;HTU21D;63509;45.250;38.102;2023-07-24T11:13:42;31.73;46.42
74946;HTU21D;63509;45.250;38.102;2023-07-24T11:16:08;31.69;46.44
74946;HTU21D;63509;45.250;38.102;2023-07-24T11:18:55;31.67;46.50
74946;HTU21D;63509;45.250;38.102;2023-07-24T11:21:24;31.57;46.60
74946;HTU21D;63509;45.250;38.102;2023-07-24T11:23:53;31.60;46.60
74946;HTU21D;63509;45.250;38.102;2023-07-24T11:26:24;31.65;46.52
74946;HTU21D;63509;45.250;38.102;2023-07-24T11:28:54;31.70;46.43
74946;HTU21D;63509;45.250;38.102;2023-07-24T11:31:20;31.83;46.23
74946;HTU21D;63509;45.250;38.102;2023-07-24T11:33:49;31.87;46.22
74946;HTU21D;63509;45.250;38.102;2023-07-24T11:36:16;31.92;46.06
74946;HTU21D;63509;45.250;38.102;2023-07-24T11:38:45;31.96;45.96
74946;HTU21D;63509;45.250;38.102;2023-07-24T11:41:12;31.93;45.97
74946;HTU21D;63509;45.250;38.102;2023-07-24T11:43:46;31.95;45.99
74946;HTU21D;63509;45.250;38.102;2023-07-24T11:46:25;31.95;45.96
74946;HTU21D;63509;45.250;38.102;2023-07-24T11:48:52;31.95;45.73
74946;HTU21D;63509;45.250;38.102;2023-07-24T11:51:19;31.98;45.79
74946;HTU21D;63509;45.250;38.102;2023-07-24T11:53:45;32.10;45.66
74946;HTU21D;63509;45.250;38.102;2023-07-24T11:56:16;32.16;45.50
74946;HTU21D;63509;45.250;38.102;2023-07-24T11:58:45;32.14;45.42
74946;HTU21D;63509;45.250;38.102;2023-07-24T12:01:14;32.09;45.41
74946;HTU21D;63509;45.250;38.102;2023-07-24T12:03:41;32.03;45.31
74946;HTU21D;63509;45.250;38.102;2023-07-24T12:06:17;31.92;45.43
74946;HTU21D;63509;45.250;38.102;2023-07-24T12:08:44;31.89;45.27
74946;HTU21D;63509;45.250;38.102;2023-07-24T12:11:19;31.97;45.41
74946;HTU21D;63509;45.250;38.102;2023-07-24T12:13:45;32.01;45.22
74946;HTU21D;63509;45.250;38.102;2023-07-24T12:16:11;32.03;45.11
74946;HTU21D;63509;45.250;38.102;2023-07-24T12:18:37;32.13;44.99
74946;HTU21D;63509;45.250;38.102;2023-07-24T12:21:03;32.17;44.83
74946;HTU21D;63509;45.250;38.102;2023-07-24T12:23:30;32.24;44.77
74946;HTU21D;63509;45.250;38.102;2023-07-24T12:25:56;32.27;44.67
74946;HTU21D;63509;45.250;38.102;2023-07-24T12:28:22;32.29;44.61
74946;HTU21D;63509;45.250;38.102;2023-07-24T12:30:48;32.24;44.43
74946;HTU21D;63509;45.250;38.102;2023-07-24T12:33:15;32.09;44.43
74946;HTU21D;63509;45.250;38.102;2023-07-24T12:35:42;31.92;44.58
74946;HTU21D;63509;45.250;38.102;2023-07-24T12:38:08;31.80;44.69
74946;HTU21D;63509;45.250;38.102;2023-07-24T12:40:37;31.72;44.68
74946;HTU21D;63509;45.250;38.102;2023-07-24T12:43:04;31.48;44.74
74946;HTU21D;63509;45.250;38.102;2023-07-24T12:45:30;31.18;44.97
74946;HTU21D;63509;45.250;38.102;2023-07-24T12:47:56;30.92;45.14
74946;HTU21D;63509;45.250;38.102;2023-07-24T12:50:22;30.59;45.37
74946;HTU21D;63509;45.250;38.102;2023-07-24T12:52:49;30.24;45.70
74946;HTU21D;63509;45.250;38.102;2023-07-24T12:55:15;29.96;46.06
74946;HTU21D;63509;45.250;38.102;2023-07-24T12:57:42;29.80;46.28
74946;HTU21D;63509;45.250;38.102;2023-07-24T13:00:08;29.70;46.35
74946;HTU21D;63509;45.250;38.102;2023-07-24T13:02:35;29.54;46.48
74946;HTU21D;63509;45.250;38.102;2023-07-24T13:05:01;29.42;46.64
74946;HTU21D;63509;45.250;38.102;2023-07-24T13:07:27;29.31;46.75
74946;HTU21D;63509;45.250;38.102;2023-07-24T13:09:55;29.20;46.90
74946;HTU21D;63509;45.250;38.102;2023-07-24T13:12:21;29.19;46.91
74946;HTU21D;63509;45.250;38.102;2023-07-24T13:14:48;29.12;46.90
74946;HTU21D;63509;45.250;38.102;2023-07-24T13:17:14;29.01;46.98
74946;HTU21D;63509;45.250;38.102;2023-07-24T13:19:43;28.91;47.02
74946;HTU21D;63509;45.250;38.102;2023-07-24T13:22:10;28.83;47.09
74946;HTU21D;63509;45.250;38.102;2023-07-24T13:24:36;28.77;47.12
74946;HTU21D;63509;45.250;38.102;2023-07-24T13:27:03;28.71;47.19
74946;HTU21D;63509;45.250;38.102;2023-07-24T13:29:30;28.67;47.26
74946;HTU21D;63509;45.250;38.102;2023-07-24T13:31:57;28.65;47.31
74946;HTU21D;63509;45.250;38.102;2023-07-24T13:34:24;28.64;47.26
74946;HTU21D;63509;45.250;38.102;2023-07-24T13:36:50;28.61;47.27
74946;HTU21D;63509;45.250;38.102;2023-07-24T13:39:16;28.59;47.33
74946;HTU21D;63509;45.250;38.102;2023-07-24T13:41:43;28.58;47.32
74946;HTU21D;63509;45.250;38.102;2023-07-24T13:44:10;28.58;47.34
74946;HTU21D;63509;45.250;38.102;2023-07-24T13:46:36;28.61;47.42
74946;HTU21D;63509;45.250;38.102;2023-07-24T13:49:02;28.68;47.39
74946;HTU21D;63509;45.250;38.102;2023-07-24T13:51:29;28.69;47.27
74946;HTU21D;63509;45.250;38.102;2023-07-24T13:53:55;28.64;47.28
74946;HTU21D;63509;45.250;38.102;2023-07-24T13:56:21;28.61;47.35
74946;HTU21D;63509;45.250;38.102;2023-07-24T13:58:50;28.58;47.36
74946;HTU21D;63509;45.250;38.102;2023-07-24T14:01:22;28.57;47.34
74946;HTU21D;63509;45.250;38.102;2023-07-24T14:03:49;28.50;47.38
74946;HTU21D;63509;45.250;38.102;2023-07-24T14:06:15;28.50;47.42
74946;HTU21D;63509;45.250;38.102;2023-07-24T14:08:45;28.47;47.42
74946;HTU21D;63509;45.250;38.102;2023-07-24T14:11:11;28.48;47.41
74946;HTU21D;63509;45.250;38.102;2023-07-24T14:13:37;28.47;47.45
74946;HTU21D;63509;45.250;38.102;2023-07-24T14:16:03;28.48;47.42
74946;HTU21D;63509;45.250;38.102;2023-07-24T14:18:30;28.45;47.44
74946;HTU21D;63509;45.250;38.102;2023-07-24T14:20:56;28.39;47.50
74946;HTU21D;63509;45.250;38.102;2023-07-24T14:23:22;28.32;47.56
74946;HTU21D;63509;45.250;38.102;2023-07-24T14:25:49;28.28;47.63
74946;HTU21D;63509;45.250;38.102;2023-07-24T14:28:15;28.26;47.64
74946;HTU21D;63509;45.250;38.102;2023-07-24T14:30:41;28.20;47.72
74946;HTU21D;63509;45.250;38.102;2023-07-24T14:33:07;28.18;47.71
74946;HTU21D;63509;45.250;38.102;2023-07-24T14:35:33;28.12;47.76
74946;HTU21D;63509;45.250;38.102;2023-07-24T14:38:00;28.11;47.79
74946;HTU21D;63509;45.250;38.102;2023-07-24T14:40:26;28.10;47.83
74946;HTU21D;63509;45.250;38.102;2023-07-24T14:42:52;28.05;47.91
74946;HTU21D;63509;45.250;38.102;2023-07-24T14:45:18;28.01;47.96
74946;HTU21D;63509;45.250;38.102;2023-07-24T14:47:44;27.98;47.99
74946;HTU21D;63509;45.250;38.102;2023-07-24T14:50:11;27.94;48.02
74946;HTU21D;63509;45.250;38.102;2023-07-24T14:52:37;27.90;48.05
74946;HTU21D;63509;45.250;38.102;2023-07-24T14:55:03;27.87;48.08
74946;HTU21D;63509;45.250;38.102;2023-07-24T14:57:30;27.83;48.14
74946;HTU21D;63509;45.250;38.102;2023-07-24T14:59:56;27.82;48.15
74946;HTU21D;63509;45.250;38.102;2023-07-24T15:02:23;27.81;48.17
74946;HTU21D;63509;45.250;38.102;2023-07-24T15:04:49;27.76;48.25